createdAt,value
2023-05-10T00:00:15.994Z,32.10
2023-05-10T00:02:45.180Z,32.57
2023-05-10T00:05:13.160Z,26.50
2023-05-10T00:07:41.099Z,27.57
2023-05-10T00:10:09.628Z,38.00
2023-05-10T00:12:39.305Z,43.77
2023-05-10T00:15:08.492Z,32.20
2023-05-10T00:17:36.561Z,25.57
2023-05-10T00:20:05.763Z,29.27
2023-05-10T00:22:33.859Z,29.20
2023-05-10T00:25:01.854Z,25.23
2023-05-10T00:27:29.806Z,26.97
2023-05-10T00:29:59.041Z,25.67
2023-05-10T00:32:26.949Z,24.80
2023-05-10T00:34:54.908Z,24.43
2023-05-10T00:40:09.450Z,21.03
2023-05-10T00:42:37.408Z,22.50
2023-05-10T00:45:08.580Z,21.23
2023-05-10T00:47:37.414Z,22.60
2023-05-10T00:50:06.277Z,21.53
2023-05-10T00:52:34.330Z,17.83
2023-05-10T00:55:04.267Z,22.40
2023-05-10T00:57:33.384Z,17.93
2023-05-10T01:00:01.651Z,20.77
2023-05-10T01:02:31.041Z,19.37
2023-05-10T01:04:59.006Z,19.83
2023-05-10T01:07:27.060Z,16.83
2023-05-10T01:09:55.140Z,18.30
2023-05-10T01:12:23.182Z,23.07
2023-05-10T01:14:51.165Z,25.20
2023-05-10T01:17:19.638Z,25.83
2023-05-10T01:19:48.909Z,22.87
2023-05-10T01:22:39.459Z,25.90
2023-05-10T01:25:41.307Z,28.43
2023-05-10T01:28:40.110Z,22.63
2023-05-10T01:31:24.722Z,26.13
2023-05-10T01:33:58.202Z,40.20
2023-05-10T01:36:32.450Z,25.83
2023-05-10T01:39:08.707Z,30.00
2023-05-10T01:41:47.152Z,28.13
2023-05-10T01:44:22.623Z,30.40
2023-05-10T01:46:55.174Z,31.77
2023-05-10T01:49:28.345Z,30.10
2023-05-10T01:52:01.256Z,33.10
2023-05-10T01:54:31.070Z,30.53
2023-05-10T01:57:05.340Z,42.97
2023-05-10T01:59:40.075Z,40.43
2023-05-10T02:02:08.753Z,30.57
2023-05-10T02:04:40.550Z,31.13
2023-05-10T02:07:10.019Z,33.63
2023-05-10T02:09:39.116Z,35.50
2023-05-10T02:12:09.330Z,34.63
2023-05-10T02:14:38.940Z,43.57
2023-05-10T02:17:08.805Z,39.90
2023-05-10T02:19:40.273Z,38.93
2023-05-10T02:22:10.060Z,54.30
2023-05-10T02:24:38.756Z,46.67
2023-05-10T02:27:08.100Z,43.80
2023-05-10T02:29:38.449Z,43.40
2023-05-10T02:32:07.860Z,50.37
2023-05-10T02:34:36.585Z,45.63
2023-05-10T02:37:06.922Z,44.80
2023-05-10T02:39:35.809Z,50.20
2023-05-10T02:42:05.755Z,36.70
2023-05-10T02:44:35.398Z,36.13
2023-05-10T02:47:03.292Z,49.83
2023-05-10T02:49:31.160Z,43.37
2023-05-10T02:52:03.285Z,35.30
2023-05-10T02:54:37.900Z,39.10
2023-05-10T02:57:07.864Z,36.67
2023-05-10T02:59:35.987Z,35.10
2023-05-10T03:02:04.889Z,42.70
2023-05-10T03:04:32.837Z,36.10
2023-05-10T03:07:00.825Z,36.90
2023-05-10T03:09:28.790Z,35.67
2023-05-10T03:12:05.920Z,32.17
2023-05-10T03:14:50.897Z,31.57
2023-05-10T03:17:38.254Z,39.13
2023-05-10T03:20:10.958Z,32.33
2023-05-10T03:22:42.872Z,31.97
2023-05-10T03:25:13.372Z,32.73
2023-05-10T03:27:46.030Z,31.30
2023-05-10T03:30:15.309Z,39.47
2023-05-10T03:32:43.712Z,34.67
2023-05-10T03:35:12.537Z,37.10
2023-05-10T03:37:40.577Z,35.87
2023-05-10T03:40:09.707Z,46.07
2023-05-10T03:42:39.767Z,33.80
2023-05-10T03:45:10.983Z,36.67
2023-05-10T03:47:38.981Z,35.73
2023-05-10T03:50:08.322Z,39.83
2023-05-10T03:52:36.261Z,35.93
2023-05-10T03:55:04.631Z,33.63
2023-05-10T03:57:32.663Z,39.47
2023-05-10T04:00:01.614Z,34.23
2023-05-10T04:02:31.413Z,46.57
2023-05-10T04:04:59.412Z,39.30
2023-05-10T04:07:27.282Z,44.43
2023-05-10T04:09:55.123Z,46.50
2023-05-10T04:12:24.119Z,68.37
2023-05-10T04:14:52.048Z,49.50
2023-05-10T04:17:19.920Z,53.10
2023-05-10T04:19:49.127Z,64.53
2023-05-10T04:22:16.982Z,46.13
2023-05-10T04:24:44.864Z,58.63
2023-05-10T04:27:12.823Z,48.27
2023-05-10T04:29:40.700Z,47.10
2023-05-10T04:32:08.926Z,44.27
2023-05-10T04:34:36.783Z,54.67
2023-05-10T04:37:06.413Z,53.87
2023-05-10T04:39:34.371Z,52.90
2023-05-10T04:42:03.708Z,54.57
2023-05-10T04:44:31.637Z,49.57
2023-05-10T04:46:59.619Z,47.33
2023-05-10T04:49:27.511Z,49.33
2023-05-10T04:51:55.414Z,52.77
2023-05-10T04:54:24.637Z,46.80
2023-05-10T04:56:52.688Z,46.33
2023-05-10T04:59:20.579Z,44.17
2023-05-10T05:01:48.538Z,50.53
2023-05-10T05:04:16.783Z,41.87
2023-05-10T05:06:44.784Z,40.80
2023-05-10T05:09:12.690Z,47.80
2023-05-10T05:11:41.968Z,49.60
2023-05-10T05:14:09.800Z,45.67
2023-05-10T05:16:37.672Z,44.93
2023-05-10T05:19:05.743Z,41.07
2023-05-10T05:21:33.950Z,46.13
2023-05-10T05:24:02.281Z,41.07
2023-05-10T05:26:30.220Z,49.93
2023-05-10T05:28:59.414Z,36.00
2023-05-10T05:31:27.321Z,37.87
2023-05-10T05:33:55.231Z,35.27
2023-05-10T05:36:23.583Z,37.43
2023-05-10T05:38:51.435Z,31.53
2023-05-10T05:41:19.333Z,29.50
2023-05-10T05:43:47.268Z,30.47
2023-05-10T05:46:16.532Z,33.43
2023-05-10T05:48:44.460Z,24.70
2023-05-10T05:51:12.416Z,26.80
2023-05-10T05:53:40.345Z,26.50
2023-05-10T05:56:08.963Z,28.67
2023-05-10T05:58:36.892Z,26.13
2023-05-10T06:01:04.817Z,25.03
2023-05-10T06:03:34.194Z,25.70
2023-05-10T06:06:02.174Z,29.03
2023-05-10T06:08:30.048Z,27.53
2023-05-10T06:10:57.864Z,28.27
2023-05-10T06:13:25.742Z,27.00
2023-05-10T06:15:53.599Z,27.93
2023-05-10T06:18:21.433Z,30.73
2023-05-10T06:20:52.625Z,24.40
2023-05-10T06:23:20.493Z,26.53
2023-05-10T06:25:48.374Z,29.00
2023-05-10T06:28:16.313Z,27.73
2023-05-10T06:30:44.471Z,28.23
2023-05-10T06:33:12.410Z,28.20
2023-05-10T06:35:40.315Z,29.30
2023-05-10T06:38:09.630Z,24.70
2023-05-10T06:40:37.905Z,25.17
2023-05-10T06:43:06.537Z,24.13
2023-05-10T06:45:34.426Z,28.00
2023-05-10T06:48:02.472Z,22.63
2023-05-10T06:50:30.480Z,28.67
2023-05-10T06:52:58.434Z,24.90
2023-05-10T06:55:28.586Z,28.87
2023-05-10T06:57:56.594Z,25.67
2023-05-10T07:00:24.650Z,25.67
2023-05-10T07:02:52.873Z,23.77
2023-05-10T07:05:21.250Z,27.47
2023-05-10T07:07:49.421Z,21.93
2023-05-10T07:10:17.362Z,21.93
2023-05-10T07:12:46.706Z,24.77
2023-05-10T07:15:14.810Z,22.37
2023-05-10T07:17:44.071Z,23.73
2023-05-10T07:20:14.510Z,23.17
2023-05-10T07:22:42.579Z,21.57
2023-05-10T07:25:10.777Z,21.47
2023-05-10T07:27:38.659Z,19.07
2023-05-10T07:30:09.505Z,17.70
2023-05-10T07:32:37.529Z,21.47
2023-05-10T07:35:06.477Z,22.50
2023-05-10T07:37:34.467Z,17.93
2023-05-10T07:40:02.405Z,19.03
2023-05-10T07:42:30.359Z,17.03
2023-05-10T07:44:58.718Z,20.50
2023-05-10T07:47:27.962Z,18.53
2023-05-10T07:49:56.184Z,18.73
2023-05-10T07:52:24.020Z,13.50
2023-05-10T07:54:51.925Z,17.33
2023-05-10T07:57:20.143Z,12.57
2023-05-10T07:59:48.483Z,14.13
2023-05-10T08:02:16.490Z,14.03
2023-05-10T08:04:45.817Z,13.43
2023-05-10T08:07:13.728Z,12.40
2023-05-10T08:09:41.614Z,12.77
2023-05-10T08:12:09.503Z,11.30
2023-05-10T08:14:37.752Z,16.47
2023-05-10T08:17:06.128Z,15.30
2023-05-10T08:19:34.019Z,12.73
2023-05-10T08:22:03.311Z,10.77
2023-05-10T08:24:31.194Z,11.60
2023-05-10T08:26:59.277Z,15.17
2023-05-10T08:29:28.503Z,12.37
2023-05-10T08:31:58.428Z,12.90
2023-05-10T08:34:26.433Z,13.27
2023-05-10T08:36:54.523Z,12.03
2023-05-10T08:39:30.466Z,10.43
2023-05-10T08:42:03.752Z,14.63
2023-05-10T08:44:32.823Z,10.00
2023-05-10T08:47:04.409Z,10.73
2023-05-10T08:49:34.286Z,12.27
2023-05-10T08:52:04.813Z,11.47
2023-05-10T08:54:35.118Z,12.67
2023-05-10T08:57:03.136Z,10.77
2023-05-10T08:59:31.063Z,11.60
2023-05-10T09:02:00.608Z,13.83
2023-05-10T09:04:29.346Z,13.03
2023-05-10T09:06:57.593Z,11.93
2023-05-10T09:09:27.170Z,11.70
2023-05-10T09:11:56.749Z,11.60
2023-05-10T09:14:26.416Z,12.47
2023-05-10T09:16:55.117Z,11.37
2023-05-10T09:19:23.038Z,10.27
2023-05-10T09:21:51.437Z,11.23
2023-05-10T09:24:19.311Z,10.23
2023-05-10T09:26:50.662Z,9.43
2023-05-10T09:29:20.019Z,10.40
2023-05-10T09:31:52.165Z,11.73
2023-05-10T09:34:21.914Z,9.57
2023-05-10T09:36:55.987Z,8.93
2023-05-10T09:39:32.762Z,9.80
2023-05-10T09:42:01.784Z,9.03
2023-05-10T09:44:31.229Z,9.13
2023-05-10T09:46:59.468Z,9.53
2023-05-10T09:49:27.445Z,9.67
2023-05-10T09:52:05.765Z,10.10
2023-05-10T09:54:34.407Z,7.30
2023-05-10T09:57:02.805Z,7.83
2023-05-10T09:59:32.073Z,7.07
2023-05-10T10:02:01.878Z,7.70
2023-05-10T10:04:30.303Z,6.87
2023-05-10T10:07:03.536Z,7.13
2023-05-10T10:09:31.621Z,6.50
2023-05-10T10:12:00.658Z,9.00
2023-05-10T10:14:28.713Z,6.60
2023-05-10T10:17:08.125Z,7.50
2023-05-10T10:19:37.929Z,7.40
2023-05-10T10:22:06.776Z,9.50
2023-05-10T10:24:35.004Z,10.57
2023-05-10T10:27:10.963Z,9.73
2023-05-10T10:29:43.068Z,10.10
2023-05-10T10:32:22.141Z,12.20
2023-05-10T10:34:50.270Z,14.43
2023-05-10T10:37:18.417Z,15.70
2023-05-10T10:39:46.440Z,15.03
2023-05-10T10:42:14.312Z,13.53
2023-05-10T10:44:42.847Z,15.97
2023-05-10T10:47:25.801Z,15.70
2023-05-10T10:50:04.426Z,15.03
2023-05-10T10:52:36.209Z,14.13
2023-05-10T10:55:06.246Z,15.33
2023-05-10T10:57:35.512Z,13.97
2023-05-10T11:00:26.287Z,13.80
2023-05-10T11:02:58.212Z,13.70
2023-05-10T11:05:28.005Z,13.67
2023-05-10T11:07:56.844Z,13.97
2023-05-10T11:10:25.577Z,13.57
2023-05-10T11:12:54.956Z,13.90
2023-05-10T11:15:30.816Z,14.63
2023-05-10T11:18:00.455Z,13.47
2023-05-10T11:20:34.206Z,15.57
2023-05-10T11:23:16.490Z,14.30
2023-05-10T11:25:45.898Z,13.80
2023-05-10T11:28:14.145Z,16.43
2023-05-10T11:30:43.873Z,15.33
2023-05-10T11:33:17.927Z,15.53
2023-05-10T11:35:46.020Z,15.80
2023-05-10T11:38:15.317Z,15.17
2023-05-10T11:40:43.733Z,14.87
2023-05-10T11:43:15.119Z,15.33
2023-05-10T11:45:44.229Z,16.33
2023-05-10T11:48:13.490Z,16.47
2023-05-10T11:50:41.596Z,17.90
2023-05-10T11:53:09.445Z,17.33
2023-05-10T11:55:37.355Z,15.87
2023-05-10T11:58:05.258Z,15.60
2023-05-10T12:00:34.062Z,17.27
2023-05-10T12:03:03.411Z,14.87
2023-05-10T12:05:35.308Z,14.90
2023-05-10T12:08:16.378Z,12.93
2023-05-10T12:10:44.336Z,17.10
2023-05-10T12:13:16.411Z,13.43
2023-05-10T12:15:45.387Z,16.43
2023-05-10T12:18:14.512Z,14.20
2023-05-10T12:20:43.955Z,15.03
2023-05-10T12:23:12.240Z,13.30
2023-05-10T12:25:41.017Z,14.17
2023-05-10T12:28:10.807Z,13.40
2023-05-10T12:30:39.616Z,15.73
2023-05-10T12:33:11.183Z,12.67
2023-05-10T12:35:51.147Z,13.20
2023-05-10T12:38:30.496Z,11.57
2023-05-10T12:40:59.485Z,14.67
2023-05-10T12:43:27.426Z,11.00
2023-05-10T12:45:55.609Z,11.10
2023-05-10T12:48:23.694Z,13.67
2023-05-10T12:50:52.939Z,13.67
2023-05-10T12:53:20.820Z,10.73
2023-05-10T12:55:48.709Z,10.47
2023-05-10T12:58:27.817Z,10.33
2023-05-10T13:01:01.072Z,16.10
2023-05-10T13:03:29.086Z,8.63
2023-05-10T13:05:58.356Z,8.77
2023-05-10T13:08:26.373Z,12.73
2023-05-10T13:10:54.444Z,8.43
2023-05-10T13:13:22.309Z,8.33
2023-05-10T13:15:50.126Z,8.93
2023-05-10T13:18:18.120Z,10.47
2023-05-10T13:20:46.121Z,8.80
2023-05-10T13:23:15.665Z,9.37
2023-05-10T13:25:43.532Z,10.17
2023-05-10T13:28:11.372Z,11.13
2023-05-10T13:30:39.228Z,10.20
2023-05-10T13:33:07.103Z,10.83
2023-05-10T13:35:35.017Z,10.03
2023-05-10T13:38:02.994Z,11.20
2023-05-10T13:40:32.207Z,10.73
2023-05-10T13:43:00.186Z,9.23
2023-05-10T13:45:28.484Z,9.50
2023-05-10T13:47:56.413Z,10.33
2023-05-10T13:50:24.344Z,12.00
2023-05-10T13:52:52.170Z,11.13
2023-05-10T13:55:20.263Z,7.40
2023-05-10T13:57:49.621Z,8.27
2023-05-10T14:00:18.259Z,5.27
2023-05-10T14:02:46.219Z,6.53
2023-05-10T14:05:14.304Z,5.53
2023-05-10T14:07:42.193Z,6.40
2023-05-10T14:10:10.717Z,7.27
2023-05-10T14:12:38.656Z,5.20
2023-05-10T14:15:11.280Z,6.03
2023-05-10T14:17:39.291Z,5.90
2023-05-10T14:20:08.559Z,6.07
2023-05-10T14:22:36.747Z,6.43
2023-05-10T14:25:04.988Z,5.40
2023-05-10T14:27:34.278Z,5.00
2023-05-10T14:30:02.118Z,5.90
2023-05-10T14:32:32.924Z,5.00
2023-05-10T14:35:01.043Z,5.27
2023-05-10T14:37:28.922Z,4.77
2023-05-10T14:39:56.781Z,5.43
2023-05-10T14:42:24.614Z,5.17
2023-05-10T14:44:52.482Z,5.37
2023-05-10T14:47:20.326Z,4.20
2023-05-10T14:49:49.578Z,4.73
2023-05-10T14:52:18.189Z,3.73
2023-05-10T14:54:46.064Z,4.23
2023-05-10T14:57:13.918Z,4.47
2023-05-10T14:59:41.773Z,4.13
2023-05-10T15:02:11.344Z,3.67
2023-05-10T15:04:39.777Z,3.33
2023-05-10T15:07:09.361Z,4.37
2023-05-10T15:09:37.188Z,4.83
2023-05-10T15:12:05.293Z,5.70
2023-05-10T15:14:33.830Z,5.40
2023-05-10T15:17:01.814Z,7.60
2023-05-10T15:19:30.474Z,7.20
2023-05-10T15:21:58.339Z,9.10
2023-05-10T15:24:27.621Z,6.13
2023-05-10T15:26:55.889Z,7.93
2023-05-10T15:29:23.888Z,10.50
2023-05-10T15:31:52.763Z,8.43
2023-05-10T15:34:21.036Z,9.23
2023-05-10T15:36:48.894Z,9.03
2023-05-10T15:39:16.735Z,10.13
2023-05-10T15:41:45.986Z,11.87
2023-05-10T15:44:13.834Z,11.40
2023-05-10T15:46:41.799Z,12.83
2023-05-10T15:49:09.684Z,15.17
2023-05-10T15:51:37.654Z,15.03
2023-05-10T15:54:08.325Z,13.67
2023-05-10T15:56:36.658Z,13.70
2023-05-10T15:59:06.271Z,11.67
2023-05-10T16:01:34.445Z,10.40
2023-05-10T16:04:02.534Z,12.20
2023-05-10T16:06:31.264Z,14.03
2023-05-10T16:08:59.196Z,11.73
2023-05-10T16:11:27.088Z,11.00
2023-05-10T16:13:55.387Z,12.57
2023-05-10T16:16:24.675Z,9.70
2023-05-10T16:18:53.202Z,10.47
2023-05-10T16:21:21.254Z,11.83
2023-05-10T16:23:49.196Z,9.43
2023-05-10T16:26:17.471Z,8.60
2023-05-10T16:28:45.375Z,10.67
2023-05-10T16:31:13.775Z,9.47
2023-05-10T16:33:43.559Z,8.10
2023-05-10T16:36:11.427Z,12.73
2023-05-10T16:38:39.277Z,8.83
2023-05-10T16:41:07.668Z,7.93
2023-05-10T16:43:35.798Z,8.13
2023-05-10T16:46:03.908Z,9.00
2023-05-10T16:48:31.763Z,11.10
2023-05-10T16:51:01.058Z,7.77
2023-05-10T16:53:28.948Z,8.53
2023-05-10T16:55:56.819Z,8.27
2023-05-10T16:58:24.745Z,10.23
2023-05-10T17:00:52.986Z,8.87
2023-05-10T17:03:21.070Z,8.30
2023-05-10T17:05:49.107Z,10.13
2023-05-10T17:08:18.556Z,9.07
2023-05-10T17:10:46.622Z,8.10
2023-05-10T17:13:16.905Z,8.60
2023-05-10T17:15:46.857Z,8.80
2023-05-10T17:18:14.853Z,7.63
2023-05-10T17:20:45.070Z,8.10
2023-05-10T17:23:13.041Z,6.10
2023-05-10T17:25:42.705Z,5.73
2023-05-10T17:28:10.715Z,3.73
2023-05-10T17:30:38.638Z,3.90
2023-05-10T17:33:06.572Z,5.30
2023-05-10T17:35:34.519Z,3.97
2023-05-10T17:38:02.596Z,4.07
2023-05-10T17:40:30.448Z,4.40
2023-05-10T17:42:59.611Z,4.53
2023-05-10T17:45:27.626Z,5.50
2023-05-10T17:47:55.584Z,6.47
2023-05-10T17:50:23.535Z,6.27
2023-05-10T17:52:52.460Z,6.63
2023-05-10T17:55:20.421Z,6.30
2023-05-10T17:57:50.568Z,7.30
2023-05-10T18:00:21.490Z,7.57
2023-05-10T18:02:49.433Z,7.73
2023-05-10T18:05:17.906Z,6.63
2023-05-10T18:07:46.031Z,7.03
2023-05-10T18:10:13.975Z,8.07
2023-05-10T18:12:41.868Z,7.27
2023-05-10T18:15:10.426Z,8.33
2023-05-10T18:17:39.821Z,7.63
2023-05-10T18:20:09.049Z,9.20
2023-05-10T18:22:37.165Z,8.83
2023-05-10T18:25:05.637Z,7.60
2023-05-10T18:27:34.268Z,7.47
2023-05-10T18:30:02.287Z,7.80
2023-05-10T18:32:30.383Z,8.27
2023-05-10T18:34:59.890Z,9.17
2023-05-10T18:37:27.888Z,7.87
2023-05-10T18:39:55.754Z,7.57
2023-05-10T18:42:23.642Z,8.70
2023-05-10T18:44:51.686Z,8.40
2023-05-10T18:47:19.800Z,8.60
2023-05-10T18:49:47.959Z,8.90
2023-05-10T18:52:17.191Z,8.53
2023-05-10T18:54:45.130Z,9.77
2023-05-10T18:57:13.763Z,10.73
2023-05-10T18:59:41.731Z,9.60
2023-05-10T19:02:09.755Z,13.43
2023-05-10T19:04:37.891Z,9.93
2023-05-10T19:07:05.791Z,10.63
2023-05-10T19:09:35.043Z,11.90
2023-05-10T19:12:02.937Z,8.90
2023-05-10T19:14:30.860Z,10.23
2023-05-10T19:17:00.681Z,10.17
2023-05-10T19:19:28.956Z,9.13
2023-05-10T19:21:56.814Z,15.73
2023-05-10T19:24:25.821Z,11.90
2023-05-10T19:26:56.129Z,12.07
2023-05-10T19:29:25.766Z,11.37
2023-05-10T19:31:54.461Z,11.57
2023-05-10T19:34:22.466Z,12.20
2023-05-10T19:36:51.074Z,10.97
2023-05-10T19:39:19.506Z,10.00
2023-05-10T19:41:47.804Z,10.67
2023-05-10T19:44:18.039Z,12.43
2023-05-10T19:46:46.036Z,10.43
2023-05-10T19:49:13.961Z,10.80
2023-05-10T19:51:41.821Z,9.10
2023-05-10T19:54:09.716Z,8.50
2023-05-10T19:56:37.678Z,8.57
2023-05-10T19:59:07.656Z,10.67
2023-05-10T20:01:37.111Z,10.53
2023-05-10T20:04:05.152Z,11.40
2023-05-10T20:06:33.008Z,10.90
2023-05-10T20:09:00.925Z,12.30
2023-05-10T20:11:28.811Z,11.47
2023-05-10T20:13:56.930Z,14.90
2023-05-10T20:16:26.784Z,13.40
2023-05-10T20:18:56.374Z,13.57
2023-05-10T20:21:26.284Z,13.27
2023-05-10T20:23:54.107Z,15.20
2023-05-10T20:26:22.582Z,13.03
2023-05-10T20:28:51.052Z,13.10
2023-05-10T20:31:18.938Z,11.73
2023-05-10T20:33:46.880Z,12.23
2023-05-10T20:36:16.691Z,16.47
2023-05-10T20:38:44.621Z,12.40
2023-05-10T20:41:12.554Z,12.67
2023-05-10T20:43:40.528Z,12.37
2023-05-10T20:46:08.716Z,12.87
2023-05-10T20:48:36.632Z,11.50
2023-05-10T20:51:04.629Z,10.80
2023-05-10T20:53:33.846Z,13.23
2023-05-10T20:56:02.208Z,11.83
2023-05-10T20:58:30.151Z,9.87
2023-05-10T21:00:58.009Z,10.23
2023-05-10T21:03:25.944Z,9.97
2023-05-10T21:05:53.894Z,10.47
2023-05-10T21:08:21.837Z,10.37
2023-05-10T21:10:51.154Z,10.10
2023-05-10T21:13:19.093Z,10.90
2023-05-10T21:15:46.965Z,12.70
2023-05-10T21:18:14.888Z,10.67
2023-05-10T21:20:42.755Z,12.93
2023-05-10T21:23:10.584Z,10.37
2023-05-10T21:25:38.471Z,12.10
2023-05-10T21:28:07.740Z,11.40
2023-05-10T21:30:35.999Z,11.47
2023-05-10T21:33:04.358Z,12.13
2023-05-10T21:35:32.348Z,12.37
2023-05-10T21:38:00.242Z,14.20
2023-05-10T21:40:29.409Z,14.70
2023-05-10T21:42:57.737Z,12.40
2023-05-10T21:45:27.277Z,12.57
2023-05-10T21:47:55.233Z,11.97
2023-05-10T21:50:23.118Z,13.00
2023-05-10T21:52:51.014Z,12.40
2023-05-10T21:55:19.240Z,12.77
2023-05-10T21:57:47.691Z,13.57
2023-05-10T22:00:17.028Z,12.30
2023-05-10T22:02:46.790Z,14.90
2023-05-10T22:05:14.800Z,13.97
2023-05-10T22:07:42.624Z,13.70
2023-05-10T22:10:11.038Z,14.23
2023-05-10T22:12:38.916Z,15.10
2023-05-10T22:15:10.245Z,12.27
2023-05-10T22:17:39.650Z,16.17
2023-05-10T22:20:10.462Z,12.50
2023-05-10T22:22:38.401Z,13.53
2023-05-10T22:25:07.257Z,16.67
2023-05-10T22:27:35.296Z,13.40
2023-05-10T22:30:03.330Z,16.43
2023-05-10T22:32:32.262Z,14.47
2023-05-10T22:35:00.267Z,14.07
2023-05-10T22:37:29.477Z,14.60
2023-05-10T22:39:57.375Z,13.37
2023-05-10T22:42:25.332Z,15.53
2023-05-10T22:44:53.417Z,15.20
2023-05-10T22:47:21.305Z,13.23
2023-05-10T22:49:49.217Z,14.03
2023-05-10T22:52:17.174Z,13.23
2023-05-10T22:54:46.457Z,15.13
2023-05-10T22:57:15.063Z,14.23
2023-05-10T22:59:43.342Z,14.47
2023-05-10T23:02:11.725Z,13.17
2023-05-10T23:04:39.688Z,13.80
2023-05-10T23:07:07.581Z,12.93
2023-05-10T23:09:35.633Z,13.27
2023-05-10T23:12:05.084Z,14.60
2023-05-10T23:14:33.046Z,13.63
2023-05-10T23:17:00.909Z,15.73
2023-05-10T23:19:28.823Z,15.60
2023-05-10T23:21:56.633Z,14.40
2023-05-10T23:24:24.515Z,14.33
2023-05-10T23:26:52.462Z,16.67
2023-05-10T23:29:23.772Z,17.93
2023-05-10T23:31:51.690Z,14.63
2023-05-10T23:34:19.660Z,17.07
2023-05-10T23:36:47.535Z,14.90
2023-05-10T23:39:15.469Z,16.37
2023-05-10T23:41:43.391Z,16.03
2023-05-10T23:44:11.289Z,15.53
2023-05-10T23:46:40.756Z,15.77
2023-05-10T23:49:08.642Z,17.70
2023-05-10T23:51:36.556Z,15.33
2023-05-10T23:54:04.526Z,17.63
2023-05-10T23:56:32.507Z,17.27
2023-05-10T23:59:00.355Z,15.73
